sensor_id;sensor_type;location;lat;lon;timestamp;P1;durP1;ratioP1;P2;durP2;ratioP2
62572;SDS011;48626;51.678;5.806;2022-11-15T00:00:20;25.60;;;13.48;;
62572;SDS011;48626;51.678;5.806;2022-11-15T00:02:46;24.05;;;13.32;;
62572;SDS011;48626;51.678;5.806;2022-11-15T00:05:11;24.95;;;12.52;;
62572;SDS011;48626;51.678;5.806;2022-11-15T00:07:37;24.90;;;13.48;;
62572;SDS011;48626;51.678;5.806;2022-11-15T00:10:03;21.35;;;12.95;;
62572;SDS011;48626;51.678;5.806;2022-11-15T00:12:28;24.58;;;12.77;;
62572;SDS011;48626;51.678;5.806;2022-11-15T00:14:54;25.65;;;13.48;;
62572;SDS011;48626;51.678;5.806;2022-11-15T00:17:20;28.05;;;13.27;;
62572;SDS011;48626;51.678;5.806;2022-11-15T00:19:46;24.48;;;13.48;;
62572;SDS011;48626;51.678;5.806;2022-11-15T00:22:11;22.85;;;13.15;;
62572;SDS011;48626;51.678;5.806;2022-11-15T00:24:37;23.52;;;12.95;;
62572;SDS011;48626;51.678;5.806;2022-11-15T00:27:02;22.67;;;13.50;;
62572;SDS011;48626;51.678;5.806;2022-11-15T00:29:28;26.65;;;13.70;;
62572;SDS011;48626;51.678;5.806;2022-11-15T00:31:54;21.52;;;12.93;;
62572;SDS011;48626;51.678;5.806;2022-11-15T00:34:19;27.02;;;13.75;;
62572;SDS011;48626;51.678;5.806;2022-11-15T00:36:45;24.08;;;13.23;;
62572;SDS011;48626;51.678;5.806;2022-11-15T00:39:10;26.55;;;13.15;;
62572;SDS011;48626;51.678;5.806;2022-11-15T00:41:36;27.58;;;13.57;;
62572;SDS011;48626;51.678;5.806;2022-11-15T00:44:02;25.40;;;13.55;;
62572;SDS011;48626;51.678;5.806;2022-11-15T00:46:27;27.35;;;13.63;;
62572;SDS011;48626;51.678;5.806;2022-11-15T00:48:53;33.30;;;14.05;;
62572;SDS011;48626;51.678;5.806;2022-11-15T00:51:18;25.52;;;13.48;;
62572;SDS011;48626;51.678;5.806;2022-11-15T00:53:44;27.25;;;13.00;;
62572;SDS011;48626;51.678;5.806;2022-11-15T00:56:10;23.20;;;13.15;;
62572;SDS011;48626;51.678;5.806;2022-11-15T00:58:35;27.00;;;13.32;;
62572;SDS011;48626;51.678;5.806;2022-11-15T01:01:11;24.42;;;12.82;;
62572;SDS011;48626;51.678;5.806;2022-11-15T01:03:38;25.20;;;13.32;;
62572;SDS011;48626;51.678;5.806;2022-11-15T01:06:05;21.00;;;12.85;;
62572;SDS011;48626;51.678;5.806;2022-11-15T01:08:31;26.20;;;14.13;;
62572;SDS011;48626;51.678;5.806;2022-11-15T01:11:07;22.92;;;13.27;;
62572;SDS011;48626;51.678;5.806;2022-11-15T01:13:35;22.65;;;14.07;;
62572;SDS011;48626;51.678;5.806;2022-11-15T01:16:12;28.83;;;14.32;;
62572;SDS011;48626;51.678;5.806;2022-11-15T01:18:41;23.35;;;12.85;;
62572;SDS011;48626;51.678;5.806;2022-11-15T01:21:07;23.48;;;12.75;;
62572;SDS011;48626;51.678;5.806;2022-11-15T01:23:38;23.10;;;12.82;;
62572;SDS011;48626;51.678;5.806;2022-11-15T01:26:05;23.08;;;12.88;;
62572;SDS011;48626;51.678;5.806;2022-11-15T01:28:33;22.27;;;13.45;;
62572;SDS011;48626;51.678;5.806;2022-11-15T01:31:04;22.98;;;12.07;;
62572;SDS011;48626;51.678;5.806;2022-11-15T01:33:33;20.95;;;12.73;;
62572;SDS011;48626;51.678;5.806;2022-11-15T01:36:05;25.63;;;14.27;;
62572;SDS011;48626;51.678;5.806;2022-11-15T01:38:41;24.50;;;13.52;;
62572;SDS011;48626;51.678;5.806;2022-11-15T01:41:13;25.65;;;13.32;;
62572;SDS011;48626;51.678;5.806;2022-11-15T01:43:42;25.23;;;13.20;;
62572;SDS011;48626;51.678;5.806;2022-11-15T01:48:44;22.73;;;13.13;;
62572;SDS011;48626;51.678;5.806;2022-11-15T01:51:10;25.20;;;12.90;;
62572;SDS011;48626;51.678;5.806;2022-11-15T01:53:41;23.50;;;12.63;;
62572;SDS011;48626;51.678;5.806;2022-11-15T01:56:11;25.00;;;13.73;;
62572;SDS011;48626;51.678;5.806;2022-11-15T01:58:41;27.08;;;12.95;;
62572;SDS011;48626;51.678;5.806;2022-11-15T02:01:09;29.65;;;14.10;;
62572;SDS011;48626;51.678;5.806;2022-11-15T02:03:49;22.00;;;13.00;;
62572;SDS011;48626;51.678;5.806;2022-11-15T02:06:27;25.85;;;12.43;;
62572;SDS011;48626;51.678;5.806;2022-11-15T02:08:52;21.20;;;12.15;;
62572;SDS011;48626;51.678;5.806;2022-11-15T02:11:19;20.08;;;12.57;;
62572;SDS011;48626;51.678;5.806;2022-11-15T02:13:44;26.50;;;12.90;;
62572;SDS011;48626;51.678;5.806;2022-11-15T02:16:25;21.50;;;12.05;;
62572;SDS011;48626;51.678;5.806;2022-11-15T02:21:58;20.67;;;11.70;;
62572;SDS011;48626;51.678;5.806;2022-11-15T02:24:51;20.50;;;12.23;;
62572;SDS011;48626;51.678;5.806;2022-11-15T02:30:21;19.38;;;12.75;;
62572;SDS011;48626;51.678;5.806;2022-11-15T02:35:59;20.92;;;13.02;;
62572;SDS011;48626;51.678;5.806;2022-11-15T02:41:09;21.63;;;12.95;;
62572;SDS011;48626;51.678;5.806;2022-11-15T02:43:40;20.60;;;12.40;;
62572;SDS011;48626;51.678;5.806;2022-11-15T02:49:12;21.35;;;11.73;;
62572;SDS011;48626;51.678;5.806;2022-11-15T02:51:40;22.80;;;12.68;;
62572;SDS011;48626;51.678;5.806;2022-11-15T02:54:10;27.42;;;13.60;;
62572;SDS011;48626;51.678;5.806;2022-11-15T02:56:39;20.58;;;13.02;;
62572;SDS011;48626;51.678;5.806;2022-11-15T03:02:01;20.52;;;12.60;;
62572;SDS011;48626;51.678;5.806;2022-11-15T03:07:11;21.40;;;12.50;;
62572;SDS011;48626;51.678;5.806;2022-11-15T03:09:50;23.73;;;13.38;;
62572;SDS011;48626;51.678;5.806;2022-11-15T03:15:16;23.70;;;12.82;;
62572;SDS011;48626;51.678;5.806;2022-11-15T03:18:10;23.90;;;13.18;;
62572;SDS011;48626;51.678;5.806;2022-11-15T03:20:39;21.52;;;12.70;;
62572;SDS011;48626;51.678;5.806;2022-11-15T03:23:06;19.83;;;12.30;;
62572;SDS011;48626;51.678;5.806;2022-11-15T03:25:35;24.52;;;12.57;;
62572;SDS011;48626;51.678;5.806;2022-11-15T03:28:08;22.05;;;12.60;;
62572;SDS011;48626;51.678;5.806;2022-11-15T03:30:36;25.20;;;12.95;;
62572;SDS011;48626;51.678;5.806;2022-11-15T03:33:04;21.90;;;12.85;;
62572;SDS011;48626;51.678;5.806;2022-11-15T03:35:32;20.88;;;12.27;;
62572;SDS011;48626;51.678;5.806;2022-11-15T03:40:54;20.65;;;12.23;;
62572;SDS011;48626;51.678;5.806;2022-11-15T03:43:41;23.75;;;12.35;;
62572;SDS011;48626;51.678;5.806;2022-11-15T03:46:16;20.70;;;12.25;;
62572;SDS011;48626;51.678;5.806;2022-11-15T03:48:50;22.48;;;13.13;;
62572;SDS011;48626;51.678;5.806;2022-11-15T03:51:31;20.63;;;12.77;;
62572;SDS011;48626;51.678;5.806;2022-11-15T03:53:57;24.25;;;13.70;;
62572;SDS011;48626;51.678;5.806;2022-11-15T03:56:22;24.30;;;12.63;;
62572;SDS011;48626;51.678;5.806;2022-11-15T03:58:48;20.92;;;12.90;;
62572;SDS011;48626;51.678;5.806;2022-11-15T04:01:14;23.02;;;12.73;;
62572;SDS011;48626;51.678;5.806;2022-11-15T04:03:39;25.02;;;12.80;;
62572;SDS011;48626;51.678;5.806;2022-11-15T04:06:05;23.55;;;13.80;;
62572;SDS011;48626;51.678;5.806;2022-11-15T04:08:31;27.20;;;13.57;;
62572;SDS011;48626;51.678;5.806;2022-11-15T04:10:56;27.98;;;13.25;;
62572;SDS011;48626;51.678;5.806;2022-11-15T04:13:22;25.00;;;13.88;;
62572;SDS011;48626;51.678;5.806;2022-11-15T04:15:47;28.25;;;14.57;;
62572;SDS011;48626;51.678;5.806;2022-11-15T04:18:13;31.15;;;14.45;;
62572;SDS011;48626;51.678;5.806;2022-11-15T04:20:38;25.95;;;14.25;;
62572;SDS011;48626;51.678;5.806;2022-11-15T04:23:22;30.98;;;14.55;;
62572;SDS011;48626;51.678;5.806;2022-11-15T04:28:42;25.75;;;14.55;;
62572;SDS011;48626;51.678;5.806;2022-11-15T04:31:26;29.60;;;14.07;;
62572;SDS011;48626;51.678;5.806;2022-11-15T04:33:52;32.90;;;14.25;;
62572;SDS011;48626;51.678;5.806;2022-11-15T04:36:18;25.63;;;14.10;;
62572;SDS011;48626;51.678;5.806;2022-11-15T04:39:03;23.88;;;13.48;;
62572;SDS011;48626;51.678;5.806;2022-11-15T04:41:29;29.67;;;15.07;;
62572;SDS011;48626;51.678;5.806;2022-11-15T04:43:55;27.92;;;14.30;;
62572;SDS011;48626;51.678;5.806;2022-11-15T04:46:21;26.40;;;14.90;;
62572;SDS011;48626;51.678;5.806;2022-11-15T04:48:48;24.13;;;13.60;;
62572;SDS011;48626;51.678;5.806;2022-11-15T04:51:14;25.33;;;14.00;;
62572;SDS011;48626;51.678;5.806;2022-11-15T04:53:40;28.15;;;14.68;;
62572;SDS011;48626;51.678;5.806;2022-11-15T04:56:05;29.67;;;14.07;;
62572;SDS011;48626;51.678;5.806;2022-11-15T04:58:31;30.90;;;14.93;;
62572;SDS011;48626;51.678;5.806;2022-11-15T05:00:57;23.98;;;14.55;;
62572;SDS011;48626;51.678;5.806;2022-11-15T05:03:22;24.48;;;13.93;;
62572;SDS011;48626;51.678;5.806;2022-11-15T05:06:07;24.83;;;13.63;;
62572;SDS011;48626;51.678;5.806;2022-11-15T05:08:32;23.55;;;12.32;;
62572;SDS011;48626;51.678;5.806;2022-11-15T05:10:58;23.20;;;13.00;;
62572;SDS011;48626;51.678;5.806;2022-11-15T05:13:24;26.77;;;13.20;;
62572;SDS011;48626;51.678;5.806;2022-11-15T05:15:49;24.27;;;13.50;;
62572;SDS011;48626;51.678;5.806;2022-11-15T05:18:15;22.17;;;12.73;;
62572;SDS011;48626;51.678;5.806;2022-11-15T05:20:40;22.15;;;12.80;;
62572;SDS011;48626;51.678;5.806;2022-11-15T05:23:06;22.25;;;12.40;;
62572;SDS011;48626;51.678;5.806;2022-11-15T05:25:32;26.13;;;12.82;;
62572;SDS011;48626;51.678;5.806;2022-11-15T05:27:58;20.48;;;12.38;;
62572;SDS011;48626;51.678;5.806;2022-11-15T05:30:23;21.08;;;12.20;;
62572;SDS011;48626;51.678;5.806;2022-11-15T05:32:49;19.08;;;12.25;;
62572;SDS011;48626;51.678;5.806;2022-11-15T05:35:18;20.15;;;11.55;;
62572;SDS011;48626;51.678;5.806;2022-11-15T05:37:55;18.52;;;12.10;;
62572;SDS011;48626;51.678;5.806;2022-11-15T05:40:21;18.95;;;12.40;;
62572;SDS011;48626;51.678;5.806;2022-11-15T05:42:47;24.90;;;14.48;;
62572;SDS011;48626;51.678;5.806;2022-11-15T05:45:13;29.90;;;17.45;;
62572;SDS011;48626;51.678;5.806;2022-11-15T05:47:39;25.48;;;14.82;;
62572;SDS011;48626;51.678;5.806;2022-11-15T05:50:05;24.02;;;14.75;;
62572;SDS011;48626;51.678;5.806;2022-11-15T05:52:34;34.35;;;17.92;;
62572;SDS011;48626;51.678;5.806;2022-11-15T05:55:02;23.05;;;15.88;;
62572;SDS011;48626;51.678;5.806;2022-11-15T05:57:29;22.50;;;14.23;;
62572;SDS011;48626;51.678;5.806;2022-11-15T05:59:55;22.55;;;14.23;;
62572;SDS011;48626;51.678;5.806;2022-11-15T06:02:20;25.80;;;12.68;;
62572;SDS011;48626;51.678;5.806;2022-11-15T06:04:46;18.60;;;12.15;;
62572;SDS011;48626;51.678;5.806;2022-11-15T06:07:11;21.00;;;13.48;;
62572;SDS011;48626;51.678;5.806;2022-11-15T06:09:37;26.25;;;14.80;;
62572;SDS011;48626;51.678;5.806;2022-11-15T06:12:03;24.40;;;12.88;;
62572;SDS011;48626;51.678;5.806;2022-11-15T06:14:29;20.08;;;11.65;;
62572;SDS011;48626;51.678;5.806;2022-11-15T06:16:54;19.58;;;11.93;;
62572;SDS011;48626;51.678;5.806;2022-11-15T06:19:20;16.58;;;10.93;;
62572;SDS011;48626;51.678;5.806;2022-11-15T06:21:46;19.67;;;12.30;;
62572;SDS011;48626;51.678;5.806;2022-11-15T06:24:11;23.13;;;12.10;;
62572;SDS011;48626;51.678;5.806;2022-11-15T06:26:37;17.50;;;11.00;;
62572;SDS011;48626;51.678;5.806;2022-11-15T06:29:03;18.05;;;11.75;;
62572;SDS011;48626;51.678;5.806;2022-11-15T06:31:29;17.90;;;11.10;;
62572;SDS011;48626;51.678;5.806;2022-11-15T06:33:55;17.90;;;11.75;;
62572;SDS011;48626;51.678;5.806;2022-11-15T06:36:20;19.23;;;10.85;;
62572;SDS011;48626;51.678;5.806;2022-11-15T06:38:46;18.25;;;10.43;;
62572;SDS011;48626;51.678;5.806;2022-11-15T06:41:12;19.42;;;11.07;;
62572;SDS011;48626;51.678;5.806;2022-11-15T06:43:39;20.33;;;10.88;;
62572;SDS011;48626;51.678;5.806;2022-11-15T06:46:05;17.33;;;11.05;;
62572;SDS011;48626;51.678;5.806;2022-11-15T06:48:32;20.83;;;10.68;;
62572;SDS011;48626;51.678;5.806;2022-11-15T06:50:59;17.65;;;10.57;;
62572;SDS011;48626;51.678;5.806;2022-11-15T06:53:26;21.35;;;10.93;;
62572;SDS011;48626;51.678;5.806;2022-11-15T06:55:52;14.88;;;10.50;;
62572;SDS011;48626;51.678;5.806;2022-11-15T06:58:18;23.00;;;10.70;;
62572;SDS011;48626;51.678;5.806;2022-11-15T07:00:45;23.05;;;11.23;;
62572;SDS011;48626;51.678;5.806;2022-11-15T07:03:11;18.25;;;10.88;;
62572;SDS011;48626;51.678;5.806;2022-11-15T07:05:37;19.58;;;10.82;;
62572;SDS011;48626;51.678;5.806;2022-11-15T07:08:02;20.40;;;10.32;;
62572;SDS011;48626;51.678;5.806;2022-11-15T07:10:29;17.27;;;10.00;;
62572;SDS011;48626;51.678;5.806;2022-11-15T07:12:55;18.63;;;10.63;;
62572;SDS011;48626;51.678;5.806;2022-11-15T07:15:25;19.83;;;10.30;;
62572;SDS011;48626;51.678;5.806;2022-11-15T07:17:51;19.23;;;10.10;;
62572;SDS011;48626;51.678;5.806;2022-11-15T07:20:17;17.75;;;9.88;;
62572;SDS011;48626;51.678;5.806;2022-11-15T07:22:43;16.27;;;9.63;;
62572;SDS011;48626;51.678;5.806;2022-11-15T07:25:12;15.27;;;9.70;;
62572;SDS011;48626;51.678;5.806;2022-11-15T07:27:38;14.65;;;8.57;;
62572;SDS011;48626;51.678;5.806;2022-11-15T07:30:04;18.17;;;10.10;;
62572;SDS011;48626;51.678;5.806;2022-11-15T07:32:30;15.93;;;9.02;;
62572;SDS011;48626;51.678;5.806;2022-11-15T07:34:56;15.68;;;9.52;;
62572;SDS011;48626;51.678;5.806;2022-11-15T07:37:21;18.58;;;9.32;;
62572;SDS011;48626;51.678;5.806;2022-11-15T07:39:47;13.82;;;8.93;;
62572;SDS011;48626;51.678;5.806;2022-11-15T07:42:13;17.17;;;9.13;;
62572;SDS011;48626;51.678;5.806;2022-11-15T07:44:57;16.05;;;8.85;;
62572;SDS011;48626;51.678;5.806;2022-11-15T07:47:22;15.13;;;8.82;;
62572;SDS011;48626;51.678;5.806;2022-11-15T07:49:48;17.40;;;8.40;;
62572;SDS011;48626;51.678;5.806;2022-11-15T07:52:13;16.90;;;8.43;;
62572;SDS011;48626;51.678;5.806;2022-11-15T07:54:39;13.48;;;8.82;;
62572;SDS011;48626;51.678;5.806;2022-11-15T07:57:05;15.15;;;9.13;;
62572;SDS011;48626;51.678;5.806;2022-11-15T07:59:32;14.20;;;8.55;;
62572;SDS011;48626;51.678;5.806;2022-11-15T08:01:58;13.25;;;8.40;;
62572;SDS011;48626;51.678;5.806;2022-11-15T08:04:23;16.85;;;8.70;;
62572;SDS011;48626;51.678;5.806;2022-11-15T08:06:49;17.25;;;8.18;;
62572;SDS011;48626;51.678;5.806;2022-11-15T08:09:17;15.48;;;8.65;;
62572;SDS011;48626;51.678;5.806;2022-11-15T08:11:43;15.77;;;8.93;;
62572;SDS011;48626;51.678;5.806;2022-11-15T08:14:08;16.23;;;9.10;;
62572;SDS011;48626;51.678;5.806;2022-11-15T08:16:34;15.55;;;9.00;;
62572;SDS011;48626;51.678;5.806;2022-11-15T08:19:00;21.88;;;8.68;;
62572;SDS011;48626;51.678;5.806;2022-11-15T08:21:25;15.02;;;8.65;;
62572;SDS011;48626;51.678;5.806;2022-11-15T08:23:51;18.27;;;8.55;;
62572;SDS011;48626;51.678;5.806;2022-11-15T08:26:16;17.77;;;8.90;;
62572;SDS011;48626;51.678;5.806;2022-11-15T08:28:42;15.43;;;8.73;;
62572;SDS011;48626;51.678;5.806;2022-11-15T08:31:14;15.18;;;8.77;;
62572;SDS011;48626;51.678;5.806;2022-11-15T08:33:42;20.67;;;9.25;;
62572;SDS011;48626;51.678;5.806;2022-11-15T08:36:15;18.77;;;8.13;;
62572;SDS011;48626;51.678;5.806;2022-11-15T08:38:41;13.55;;;8.35;;
62572;SDS011;48626;51.678;5.806;2022-11-15T08:41:10;14.50;;;8.05;;
62572;SDS011;48626;51.678;5.806;2022-11-15T08:43:48;14.38;;;7.72;;
62572;SDS011;48626;51.678;5.806;2022-11-15T08:46:14;14.45;;;7.75;;
62572;SDS011;48626;51.678;5.806;2022-11-15T08:48:39;13.45;;;7.72;;
62572;SDS011;48626;51.678;5.806;2022-11-15T08:51:05;13.70;;;7.70;;
62572;SDS011;48626;51.678;5.806;2022-11-15T08:53:31;13.48;;;7.65;;
62572;SDS011;48626;51.678;5.806;2022-11-15T08:55:56;12.48;;;7.80;;
62572;SDS011;48626;51.678;5.806;2022-11-15T08:58:22;16.20;;;8.23;;
62572;SDS011;48626;51.678;5.806;2022-11-15T09:00:48;18.20;;;8.32;;
62572;SDS011;48626;51.678;5.806;2022-11-15T09:03:13;14.15;;;7.78;;
62572;SDS011;48626;51.678;5.806;2022-11-15T09:05:40;11.25;;;7.22;;
62572;SDS011;48626;51.678;5.806;2022-11-15T09:08:05;12.75;;;7.25;;
62572;SDS011;48626;51.678;5.806;2022-11-15T09:10:31;14.35;;;7.38;;
62572;SDS011;48626;51.678;5.806;2022-11-15T09:12:57;12.50;;;7.13;;
62572;SDS011;48626;51.678;5.806;2022-11-15T09:15:23;15.77;;;7.25;;
62572;SDS011;48626;51.678;5.806;2022-11-15T09:17:48;13.00;;;7.22;;
62572;SDS011;48626;51.678;5.806;2022-11-15T09:20:14;11.50;;;7.50;;
62572;SDS011;48626;51.678;5.806;2022-11-15T09:22:40;15.60;;;7.78;;
62572;SDS011;48626;51.678;5.806;2022-11-15T09:25:06;11.30;;;7.43;;
62572;SDS011;48626;51.678;5.806;2022-11-15T09:27:32;17.08;;;7.70;;
62572;SDS011;48626;51.678;5.806;2022-11-15T09:29:58;12.38;;;6.88;;
62572;SDS011;48626;51.678;5.806;2022-11-15T09:32:23;12.43;;;7.07;;
62572;SDS011;48626;51.678;5.806;2022-11-15T09:34:53;10.77;;;6.37;;
62572;SDS011;48626;51.678;5.806;2022-11-15T09:37:19;9.98;;;6.05;;
62572;SDS011;48626;51.678;5.806;2022-11-15T09:39:44;11.18;;;6.32;;
62572;SDS011;48626;51.678;5.806;2022-11-15T09:45:17;10.27;;;5.78;;
62572;SDS011;48626;51.678;5.806;2022-11-15T09:50:47;10.40;;;5.50;;
62572;SDS011;48626;51.678;5.806;2022-11-15T09:53:17;10.60;;;4.90;;
62572;SDS011;48626;51.678;5.806;2022-11-15T09:55:58;10.02;;;4.90;;
62572;SDS011;48626;51.678;5.806;2022-11-15T09:58:30;7.65;;;4.60;;
62572;SDS011;48626;51.678;5.806;2022-11-15T10:01:06;8.82;;;4.30;;
62572;SDS011;48626;51.678;5.806;2022-11-15T10:03:39;8.13;;;4.60;;
62572;SDS011;48626;51.678;5.806;2022-11-15T10:06:13;7.63;;;4.60;;
62572;SDS011;48626;51.678;5.806;2022-11-15T10:11:35;7.72;;;4.50;;
62572;SDS011;48626;51.678;5.806;2022-11-15T10:14:21;5.80;;;4.20;;
62572;SDS011;48626;51.678;5.806;2022-11-15T10:17:06;10.38;;;4.53;;
62572;SDS011;48626;51.678;5.806;2022-11-15T10:22:39;10.27;;;3.33;;
62572;SDS011;48626;51.678;5.806;2022-11-15T10:27:35;10.27;;;3.10;;
62572;SDS011;48626;51.678;5.806;2022-11-15T10:30:01;8.60;;;3.30;;
62572;SDS011;48626;51.678;5.806;2022-11-15T10:32:35;5.13;;;2.78;;
62572;SDS011;48626;51.678;5.806;2022-11-15T10:35:15;9.77;;;2.90;;
62572;SDS011;48626;51.678;5.806;2022-11-15T10:37:47;8.00;;;3.00;;
62572;SDS011;48626;51.678;5.806;2022-11-15T10:40:18;8.43;;;3.40;;
62572;SDS011;48626;51.678;5.806;2022-11-15T10:42:46;6.78;;;2.92;;
62572;SDS011;48626;51.678;5.806;2022-11-15T10:45:33;7.35;;;2.78;;
62572;SDS011;48626;51.678;5.806;2022-11-15T10:50:40;6.55;;;2.85;;
62572;SDS011;48626;51.678;5.806;2022-11-15T10:56:07;6.35;;;3.03;;
62572;SDS011;48626;51.678;5.806;2022-11-15T10:58:41;7.53;;;2.50;;
62572;SDS011;48626;51.678;5.806;2022-11-15T11:01:10;9.43;;;2.80;;
62572;SDS011;48626;51.678;5.806;2022-11-15T11:03:41;7.57;;;2.40;;
62572;SDS011;48626;51.678;5.806;2022-11-15T11:08:35;4.63;;;2.47;;
62572;SDS011;48626;51.678;5.806;2022-11-15T11:11:02;5.68;;;2.70;;
62572;SDS011;48626;51.678;5.806;2022-11-15T11:13:30;6.95;;;2.50;;
62572;SDS011;48626;51.678;5.806;2022-11-15T11:35:59;8.45;;;2.85;;
62572;SDS011;48626;51.678;5.806;2022-11-15T11:39:00;8.90;;;2.60;;
62572;SDS011;48626;51.678;5.806;2022-11-15T11:44:44;6.22;;;2.50;;
62572;SDS011;48626;51.678;5.806;2022-11-15T11:47:36;13.77;;;2.90;;
62572;SDS011;48626;51.678;5.806;2022-11-15T11:50:19;9.13;;;2.30;;
62572;SDS011;48626;51.678;5.806;2022-11-15T11:55:36;8.88;;;2.40;;
62572;SDS011;48626;51.678;5.806;2022-11-15T11:58:13;5.80;;;2.13;;
62572;SDS011;48626;51.678;5.806;2022-11-15T12:00:46;6.22;;;2.60;;
62572;SDS011;48626;51.678;5.806;2022-11-15T12:03:25;8.88;;;2.70;;
62572;SDS011;48626;51.678;5.806;2022-11-15T12:08:57;7.35;;;2.60;;
62572;SDS011;48626;51.678;5.806;2022-11-15T12:14:28;3.30;;;1.98;;
62572;SDS011;48626;51.678;5.806;2022-11-15T12:17:00;6.50;;;2.58;;
62572;SDS011;48626;51.678;5.806;2022-11-15T12:19:26;6.88;;;2.40;;
62572;SDS011;48626;51.678;5.806;2022-11-15T12:21:59;7.32;;;2.90;;
62572;SDS011;48626;51.678;5.806;2022-11-15T12:27:21;9.20;;;2.63;;
62572;SDS011;48626;51.678;5.806;2022-11-15T12:30:19;6.43;;;2.90;;
62572;SDS011;48626;51.678;5.806;2022-11-15T12:32:53;6.45;;;2.35;;
62572;SDS011;48626;51.678;5.806;2022-11-15T12:35:35;4.75;;;2.47;;
62572;SDS011;48626;51.678;5.806;2022-11-15T12:38:08;5.90;;;2.83;;
62572;SDS011;48626;51.678;5.806;2022-11-15T12:40:38;6.25;;;2.35;;
62572;SDS011;48626;51.678;5.806;2022-11-15T12:43:43;7.90;;;2.50;;
62572;SDS011;48626;51.678;5.806;2022-11-15T12:46:11;6.68;;;2.78;;
62572;SDS011;48626;51.678;5.806;2022-11-15T12:51:08;5.82;;;2.45;;
62572;SDS011;48626;51.678;5.806;2022-11-15T12:53:34;6.57;;;2.42;;
62572;SDS011;48626;51.678;5.806;2022-11-15T12:58:57;5.30;;;2.55;;
62572;SDS011;48626;51.678;5.806;2022-11-15T13:04:24;4.97;;;2.20;;
62572;SDS011;48626;51.678;5.806;2022-11-15T13:06:53;3.97;;;2.30;;
62572;SDS011;48626;51.678;5.806;2022-11-15T13:12:00;7.25;;;2.58;;
62572;SDS011;48626;51.678;5.806;2022-11-15T13:17:02;5.15;;;2.60;;
62572;SDS011;48626;51.678;5.806;2022-11-15T13:19:35;8.85;;;2.40;;
62572;SDS011;48626;51.678;5.806;2022-11-15T13:22:04;7.85;;;2.90;;
62572;SDS011;48626;51.678;5.806;2022-11-15T13:24:52;6.28;;;2.33;;
62572;SDS011;48626;51.678;5.806;2022-11-15T13:27:18;13.63;;;2.80;;
62572;SDS011;48626;51.678;5.806;2022-11-15T13:29:45;5.40;;;2.28;;
62572;SDS011;48626;51.678;5.806;2022-11-15T13:32:11;15.40;;;2.50;;
62572;SDS011;48626;51.678;5.806;2022-11-15T13:34:38;4.28;;;2.35;;
62572;SDS011;48626;51.678;5.806;2022-11-15T13:39:46;6.15;;;2.65;;
62572;SDS011;48626;51.678;5.806;2022-11-15T13:42:15;4.70;;;2.92;;
62572;SDS011;48626;51.678;5.806;2022-11-15T13:44:59;7.55;;;2.60;;
62572;SDS011;48626;51.678;5.806;2022-11-15T13:47:26;5.57;;;2.25;;
62572;SDS011;48626;51.678;5.806;2022-11-15T13:49:53;7.43;;;2.40;;
62572;SDS011;48626;51.678;5.806;2022-11-15T13:52:22;6.68;;;2.60;;
62572;SDS011;48626;51.678;5.806;2022-11-15T13:55:28;15.07;;;2.78;;
62572;SDS011;48626;51.678;5.806;2022-11-15T13:57:49;7.47;;;2.42;;
62572;SDS011;48626;51.678;5.806;2022-11-15T14:03:22;7.22;;;2.28;;
62572;SDS011;48626;51.678;5.806;2022-11-15T14:06:09;4.22;;;2.03;;
62572;SDS011;48626;51.678;5.806;2022-11-15T14:08:40;7.70;;;2.25;;
62572;SDS011;48626;51.678;5.806;2022-11-15T14:11:27;5.07;;;2.35;;
62572;SDS011;48626;51.678;5.806;2022-11-15T14:16:44;7.40;;;2.13;;
62572;SDS011;48626;51.678;5.806;2022-11-15T14:27:37;7.50;;;2.55;;
62572;SDS011;48626;51.678;5.806;2022-11-15T14:30:04;6.43;;;2.40;;
62572;SDS011;48626;51.678;5.806;2022-11-15T14:32:38;7.18;;;2.10;;
62572;SDS011;48626;51.678;5.806;2022-11-15T14:35:12;12.23;;;2.20;;
62572;SDS011;48626;51.678;5.806;2022-11-15T14:37:47;7.75;;;2.40;;
62572;SDS011;48626;51.678;5.806;2022-11-15T14:40:14;8.18;;;2.17;;
62572;SDS011;48626;51.678;5.806;2022-11-15T14:42:42;5.15;;;2.20;;
62572;SDS011;48626;51.678;5.806;2022-11-15T14:45:13;10.32;;;2.88;;
62572;SDS011;48626;51.678;5.806;2022-11-15T14:47:43;6.97;;;2.13;;
62572;SDS011;48626;51.678;5.806;2022-11-15T14:50:13;3.15;;;1.80;;
62572;SDS011;48626;51.678;5.806;2022-11-15T14:52:41;6.07;;;1.90;;
62572;SDS011;48626;51.678;5.806;2022-11-15T14:55:13;6.53;;;1.88;;
62572;SDS011;48626;51.678;5.806;2022-11-15T14:57:48;5.50;;;2.13;;
62572;SDS011;48626;51.678;5.806;2022-11-15T15:00:14;6.72;;;2.10;;
62572;SDS011;48626;51.678;5.806;2022-11-15T15:02:41;5.45;;;1.90;;
62572;SDS011;48626;51.678;5.806;2022-11-15T15:07:44;5.57;;;2.20;;
62572;SDS011;48626;51.678;5.806;2022-11-15T15:10:11;5.15;;;2.17;;
62572;SDS011;48626;51.678;5.806;2022-11-15T15:12:37;8.85;;;2.20;;
62572;SDS011;48626;51.678;5.806;2022-11-15T15:15:03;4.35;;;1.90;;
62572;SDS011;48626;51.678;5.806;2022-11-15T15:17:29;7.43;;;2.40;;
62572;SDS011;48626;51.678;5.806;2022-11-15T15:19:55;6.88;;;2.00;;
62572;SDS011;48626;51.678;5.806;2022-11-15T15:22:21;6.07;;;1.90;;
62572;SDS011;48626;51.678;5.806;2022-11-15T15:24:50;8.33;;;1.77;;
62572;SDS011;48626;51.678;5.806;2022-11-15T15:27:16;3.17;;;1.70;;
62572;SDS011;48626;51.678;5.806;2022-11-15T15:29:42;5.93;;;2.20;;
62572;SDS011;48626;51.678;5.806;2022-11-15T15:32:08;10.10;;;2.40;;
62572;SDS011;48626;51.678;5.806;2022-11-15T15:34:35;5.93;;;2.00;;
62572;SDS011;48626;51.678;5.806;2022-11-15T15:37:08;7.60;;;2.42;;
62572;SDS011;48626;51.678;5.806;2022-11-15T15:39:43;4.75;;;2.00;;
62572;SDS011;48626;51.678;5.806;2022-11-15T15:42:08;4.88;;;1.90;;
62572;SDS011;48626;51.678;5.806;2022-11-15T15:44:34;6.80;;;2.08;;
62572;SDS011;48626;51.678;5.806;2022-11-15T15:46:59;5.55;;;1.95;;
62572;SDS011;48626;51.678;5.806;2022-11-15T15:49:25;5.38;;;2.20;;
62572;SDS011;48626;51.678;5.806;2022-11-15T15:51:51;5.18;;;2.38;;
62572;SDS011;48626;51.678;5.806;2022-11-15T15:54:16;5.72;;;2.20;;
62572;SDS011;48626;51.678;5.806;2022-11-15T15:56:50;5.30;;;2.15;;
62572;SDS011;48626;51.678;5.806;2022-11-15T15:59:15;4.03;;;2.17;;
62572;SDS011;48626;51.678;5.806;2022-11-15T16:01:41;7.47;;;2.40;;
62572;SDS011;48626;51.678;5.806;2022-11-15T16:04:07;6.70;;;2.17;;
62572;SDS011;48626;51.678;5.806;2022-11-15T16:06:34;5.55;;;2.10;;
62572;SDS011;48626;51.678;5.806;2022-11-15T16:09:02;4.63;;;2.25;;
62572;SDS011;48626;51.678;5.806;2022-11-15T16:11:28;6.82;;;2.45;;
62572;SDS011;48626;51.678;5.806;2022-11-15T16:13:54;9.70;;;3.50;;
62572;SDS011;48626;51.678;5.806;2022-11-15T16:16:20;14.23;;;5.47;;
62572;SDS011;48626;51.678;5.806;2022-11-15T16:18:46;9.35;;;4.35;;
62572;SDS011;48626;51.678;5.806;2022-11-15T16:21:15;8.93;;;3.28;;
62572;SDS011;48626;51.678;5.806;2022-11-15T16:23:40;4.28;;;2.30;;
62572;SDS011;48626;51.678;5.806;2022-11-15T16:26:20;10.18;;;2.53;;
62572;SDS011;48626;51.678;5.806;2022-11-15T16:28:48;6.10;;;2.20;;
62572;SDS011;48626;51.678;5.806;2022-11-15T16:31:14;7.28;;;2.80;;
62572;SDS011;48626;51.678;5.806;2022-11-15T16:33:41;6.38;;;3.10;;
62572;SDS011;48626;51.678;5.806;2022-11-15T16:36:26;8.30;;;2.88;;
62572;SDS011;48626;51.678;5.806;2022-11-15T16:38:52;5.82;;;2.42;;
62572;SDS011;48626;51.678;5.806;2022-11-15T16:41:18;5.70;;;2.78;;
62572;SDS011;48626;51.678;5.806;2022-11-15T16:43:48;6.82;;;2.50;;
62572;SDS011;48626;51.678;5.806;2022-11-15T16:46:18;7.15;;;2.63;;